createdAt,value
2022-09-25T00:01:34.266Z,2370.35
2022-09-25T00:03:32.320Z,2370.35
2022-09-25T00:05:31.890Z,2370.35
2022-09-25T00:07:31.639Z,2370.35
2022-09-25T00:09:32.880Z,2370.35
2022-09-25T00:11:31.743Z,2370.35
2022-09-25T00:13:32.080Z,2370.35
2022-09-25T00:15:31.579Z,2370.35
2022-09-25T00:17:32.140Z,2370.35
2022-09-25T00:19:31.814Z,2370.35
2022-09-25T00:21:32.152Z,2370.35
2022-09-25T00:23:31.853Z,2370.35
2022-09-25T00:25:32.440Z,2370.35
2022-09-25T00:27:31.512Z,2370.35
2022-09-25T00:29:37.094Z,2370.35
2022-09-25T00:31:32.716Z,2370.35
2022-09-25T00:33:31.431Z,2370.35
2022-09-25T00:35:31.259Z,2370.35
2022-09-25T00:37:31.874Z,2370.35
2022-09-25T00:39:31.884Z,2370.35
2022-09-25T00:41:32.088Z,2370.35
2022-09-25T00:43:31.383Z,2370.35
2022-09-25T00:45:31.848Z,2370.35
2022-09-25T00:47:32.190Z,2370.35
2022-09-25T00:49:31.633Z,2370.35
2022-09-25T00:51:31.418Z,2370.35
2022-09-25T00:53:31.439Z,2370.35
2022-09-25T00:55:31.978Z,2370.35
2022-09-25T00:57:31.794Z,2370.35
2022-09-25T00:59:31.155Z,2370.35
2022-09-25T01:01:37.031Z,2370.35
2022-09-25T01:03:32.984Z,2370.35
2022-09-25T01:05:32.408Z,2370.35
2022-09-25T01:07:31.707Z,2370.35
2022-09-25T01:09:31.663Z,2370.35
2022-09-25T01:11:31.713Z,2370.35
2022-09-25T01:13:31.557Z,2370.35
2022-09-25T01:15:31.306Z,2370.35
2022-09-25T01:17:32.298Z,2370.35
2022-09-25T01:19:31.263Z,2370.35
2022-09-25T01:21:31.696Z,2370.35
2022-09-25T01:23:31.807Z,2370.35
2022-09-25T01:25:32.215Z,2370.35
2022-09-25T01:27:34.705Z,2370.35
2022-09-25T01:29:31.311Z,2370.35
2022-09-25T01:31:32.678Z,2370.35
2022-09-25T01:33:31.750Z,2370.35
2022-09-25T01:35:31.349Z,2370.35
2022-09-25T01:37:31.522Z,2370.35
2022-09-25T01:39:31.725Z,2370.35
2022-09-25T01:41:31.839Z,2370.35
2022-09-25T01:43:31.989Z,2370.35
2022-09-25T01:45:32.406Z,2370.35
2022-09-25T01:47:31.686Z,2370.35
2022-09-25T01:49:31.548Z,2370.35
2022-09-25T01:51:31.629Z,2370.35
2022-09-25T01:53:31.752Z,2370.35
2022-09-25T01:55:32.153Z,2370.35
2022-09-25T01:57:31.520Z,2370.35
2022-09-25T01:59:31.737Z,2370.35
2022-09-25T02:01:34.580Z,2370.35
2022-09-25T02:03:32.820Z,2370.35
2022-09-25T02:05:31.419Z,2370.35
2022-09-25T02:07:31.261Z,2370.35
2022-09-25T02:09:31.388Z,2370.35
2022-09-25T02:11:31.881Z,2370.35
2022-09-25T02:13:32.078Z,2370.35
2022-09-25T02:15:32.270Z,2370.35
2022-09-25T02:17:31.968Z,2370.35
2022-09-25T02:19:31.464Z,2370.35
2022-09-25T02:21:31.559Z,2370.35
2022-09-25T02:23:32.162Z,2370.35
2022-09-25T02:25:33.226Z,2370.35
2022-09-25T02:27:31.572Z,2370.35
2022-09-25T02:29:32.062Z,2370.35
2022-09-25T02:31:32.182Z,2370.35
2022-09-25T02:33:31.435Z,2370.35
2022-09-25T02:35:34.267Z,2370.35
2022-09-25T02:37:31.482Z,2370.35
2022-09-25T02:39:31.911Z,2370.35
2022-09-25T02:41:33.001Z,2370.35
2022-09-25T02:43:31.760Z,2370.35
2022-09-25T02:45:32.282Z,2370.35
2022-09-25T02:47:31.857Z,2370.35
2022-09-25T02:49:31.438Z,2370.35
2022-09-25T02:51:31.675Z,2370.35
2022-09-25T02:53:31.243Z,2370.35
2022-09-25T02:55:31.680Z,2370.35
2022-09-25T02:57:37.840Z,2370.35
2022-09-25T02:59:31.826Z,2370.35
2022-09-25T03:01:35.696Z,2370.35
2022-09-25T03:03:37.658Z,2370.35
2022-09-25T03:05:31.886Z,2370.35
2022-09-25T03:07:31.710Z,2370.35
2022-09-25T03:09:31.643Z,2370.35
2022-09-25T03:11:31.687Z,2370.35
2022-09-25T03:13:32.143Z,2370.35
2022-09-25T03:15:32.234Z,2370.35
2022-09-25T03:17:32.472Z,2370.35
2022-09-25T03:19:31.380Z,2370.35
2022-09-25T03:21:32.053Z,2370.35
2022-09-25T03:23:31.797Z,2370.35
2022-09-25T03:25:32.276Z,2370.35
2022-09-25T03:27:32.485Z,2370.35
2022-09-25T03:29:31.443Z,2370.35
2022-09-25T03:31:32.667Z,2370.35
2022-09-25T03:33:31.978Z,2370.35
2022-09-25T03:35:32.337Z,2370.35
2022-09-25T03:37:32.139Z,2370.35
2022-09-25T03:39:31.637Z,2370.35
2022-09-25T03:41:32.345Z,2370.35
2022-09-25T03:43:31.923Z,2370.35
2022-09-25T03:45:31.852Z,2370.35
2022-09-25T03:47:31.907Z,2370.35
2022-09-25T03:49:31.808Z,2370.35
2022-09-25T03:51:32.122Z,2370.35
2022-09-25T03:53:31.758Z,2370.35
2022-09-25T03:55:31.571Z,2370.35
2022-09-25T03:57:31.925Z,2370.35
2022-09-25T03:59:32.255Z,2370.35
2022-09-25T04:01:35.204Z,2370.35
2022-09-25T04:03:32.056Z,2370.35
2022-09-25T04:05:31.944Z,2370.35
2022-09-25T04:07:32.164Z,2370.35
2022-09-25T04:09:31.708Z,2370.35
2022-09-25T04:11:31.248Z,2370.35
2022-09-25T04:13:31.821Z,2370.35
2022-09-25T04:15:31.725Z,2370.35
2022-09-25T04:17:32.172Z,2370.35
2022-09-25T04:19:36.474Z,2370.35
2022-09-25T04:21:32.255Z,2370.35
2022-09-25T04:23:31.487Z,2370.35
2022-09-25T04:25:35.865Z,2370.35
2022-09-25T04:27:31.608Z,2370.35
2022-09-25T04:29:32.188Z,2370.35
2022-09-25T04:31:32.126Z,2370.35
2022-09-25T04:33:31.672Z,2370.35
2022-09-25T04:35:32.054Z,2370.35
2022-09-25T04:37:32.002Z,2370.35
2022-09-25T04:39:31.362Z,2370.35
2022-09-25T04:41:32.455Z,2370.35
2022-09-25T04:43:31.617Z,2370.35
2022-09-25T04:45:31.942Z,2370.35
2022-09-25T04:47:40.722Z,2370.35
2022-09-25T04:49:31.408Z,2370.35
2022-09-25T04:51:32.113Z,2370.35
2022-09-25T04:53:31.779Z,2370.35
2022-09-25T04:55:31.983Z,2370.35
2022-09-25T04:58:08.307Z,2370.35
2022-09-25T04:59:31.839Z,2370.35
2022-09-25T05:01:34.473Z,2370.35
2022-09-25T05:03:33.631Z,2370.35
2022-09-25T05:05:38.837Z,2370.35
2022-09-25T05:07:32.136Z,2370.35
2022-09-25T05:09:31.818Z,2370.35
2022-09-25T05:11:31.812Z,2370.35
2022-09-25T05:13:32.083Z,2370.35
2022-09-25T05:15:32.302Z,2370.35
2022-09-25T05:17:32.514Z,2370.35
2022-09-25T05:19:32.594Z,2370.35
2022-09-25T05:21:31.316Z,2370.35
2022-09-25T05:23:32.012Z,2370.35
2022-09-25T05:25:33.122Z,2370.35
2022-09-25T05:27:31.566Z,2370.35
2022-09-25T05:29:31.373Z,2370.35
2022-09-25T05:31:31.882Z,2370.35
2022-09-25T05:33:31.597Z,2370.35
2022-09-25T05:35:32.273Z,2370.35
2022-09-25T05:37:31.978Z,2370.35
2022-09-25T05:39:36.925Z,2370.35
2022-09-25T05:41:32.377Z,2370.35
2022-09-25T05:43:32.286Z,2370.35
2022-09-25T05:45:34.881Z,2370.35
2022-09-25T05:47:31.797Z,2370.35
2022-09-25T05:49:31.597Z,2370.35
2022-09-25T05:51:31.854Z,2370.35
2022-09-25T05:53:31.544Z,2370.35
2022-09-25T05:55:32.069Z,2370.35
2022-09-25T05:57:31.419Z,2370.35
2022-09-25T05:59:31.870Z,2370.35
2022-09-25T06:01:34.576Z,2370.35
2022-09-25T06:03:32.274Z,2370.35
2022-09-25T06:05:32.225Z,2370.35
2022-09-25T06:07:35.115Z,2370.35
2022-09-25T06:09:31.531Z,2370.35
2022-09-25T06:11:32.158Z,2370.35
2022-09-25T06:13:31.624Z,2370.35
2022-09-25T06:15:31.854Z,2370.35
2022-09-25T06:17:32.311Z,2370.35
2022-09-25T06:19:31.772Z,2370.35
2022-09-25T06:21:35.404Z,2370.35
2022-09-25T06:23:31.841Z,2370.35
2022-09-25T06:25:31.829Z,2370.35
2022-09-25T06:27:32.078Z,2370.35
2022-09-25T06:29:37.132Z,2370.35
2022-09-25T06:31:31.984Z,2370.35
2022-09-25T06:33:32.009Z,2370.35
2022-09-25T06:35:32.052Z,2370.35
2022-09-25T06:37:31.935Z,2370.35
2022-09-25T06:39:31.366Z,2370.35
2022-09-25T06:41:34.386Z,2370.35
2022-09-25T06:43:31.840Z,2370.35
2022-09-25T06:45:32.201Z,2370.35
2022-09-25T06:47:37.954Z,2370.35
2022-09-25T06:49:31.478Z,2370.35
2022-09-25T06:51:31.738Z,2370.35
2022-09-25T06:53:31.545Z,2370.35
2022-09-25T06:55:38.069Z,2370.35
2022-09-25T06:57:31.633Z,2370.35
2022-09-25T06:59:31.939Z,2370.35
2022-09-25T07:01:41.843Z,2370.35
2022-09-25T07:03:32.447Z,2370.35
2022-09-25T07:05:31.653Z,2370.35
2022-09-25T07:07:31.595Z,2370.35
2022-09-25T07:09:31.247Z,2370.35
2022-09-25T07:11:31.971Z,2370.35
2022-09-25T07:13:31.515Z,2370.35
2022-09-25T07:15:31.602Z,2370.35
2022-09-25T07:17:32.154Z,2370.35
2022-09-25T07:19:36.941Z,2370.35
2022-09-25T07:21:31.534Z,2370.35
2022-09-25T07:23:31.806Z,2370.35
2022-09-25T07:25:31.556Z,2370.35
2022-09-25T07:27:38.622Z,2370.35
2022-09-25T07:29:32.224Z,2370.35
2022-09-25T07:31:33.127Z,2370.35
2022-09-25T07:33:34.084Z,2370.35
2022-09-25T07:35:32.115Z,2370.35
2022-09-25T07:37:32.205Z,2370.35
2022-09-25T07:39:35.106Z,96.76
2022-09-25T07:41:32.277Z,96.76
2022-09-25T07:43:31.394Z,96.76
2022-09-25T07:46:00.883Z,6.41
2022-09-25T07:47:32.316Z,6.41
2022-09-25T07:49:31.819Z,6.41
2022-09-25T07:51:34.492Z,2.33
2022-09-25T07:53:32.032Z,2.33
2022-09-25T07:55:32.467Z,2.33
2022-09-25T07:57:37.002Z,1527.88
2022-09-25T07:59:32.119Z,1527.88
2022-09-25T08:01:38.315Z,1527.88
2022-09-25T08:03:32.696Z,1.09
2022-09-25T08:05:32.171Z,1.09
2022-09-25T08:07:31.708Z,1.09
2022-09-25T08:09:33.530Z,0.9
2022-09-25T08:11:31.971Z,0.9
2022-09-25T08:13:31.432Z,0.9
2022-09-25T08:15:34.727Z,0.79
2022-09-25T08:17:34.805Z,0.79
2022-09-25T08:19:31.385Z,0.79
2022-09-25T08:21:31.750Z,756.71
2022-09-25T08:23:31.498Z,756.71
2022-09-25T08:25:32.321Z,756.71
2022-09-25T08:27:31.630Z,0.66
2022-09-25T08:29:32.023Z,0.66
2022-09-25T08:31:32.444Z,0.66
2022-09-25T08:33:37.763Z,0.58
2022-09-25T08:36:07.179Z,0.58
2022-09-25T08:37:31.661Z,0.58
2022-09-25T08:39:32.089Z,559.76
2022-09-25T08:41:32.619Z,559.76
2022-09-25T08:43:31.425Z,559.76
2022-09-25T08:46:04.905Z,539.36
2022-09-25T08:47:32.057Z,539.36
2022-09-25T08:49:32.041Z,539.36
2022-09-25T08:51:31.393Z,0.49
2022-09-25T08:53:35.556Z,0.49
2022-09-25T08:55:32.257Z,0.49
2022-09-25T08:57:32.203Z,0.49
2022-09-25T08:59:31.690Z,0.49
2022-09-25T09:01:36.117Z,0.49
2022-09-25T09:03:32.566Z,0.52
2022-09-25T09:05:31.937Z,0.52
2022-09-25T09:08:00.891Z,0.52
2022-09-25T09:09:31.619Z,570.16
2022-09-25T09:11:36.316Z,570.16
2022-09-25T09:13:31.646Z,570.16
2022-09-25T09:15:32.051Z,549.49
2022-09-25T09:17:32.141Z,549.49
2022-09-25T09:19:31.792Z,549.49
2022-09-25T09:21:31.830Z,0.51
2022-09-25T09:23:38.019Z,0.51
2022-09-25T09:25:32.185Z,0.51
2022-09-25T09:27:31.933Z,0.53
2022-09-25T09:29:31.297Z,0.53
2022-09-25T09:31:37.101Z,0.53
2022-09-25T09:33:31.983Z,570.16
2022-09-25T09:36:07.696Z,570.16
2022-09-25T09:37:31.758Z,570.16
2022-09-25T09:39:32.280Z,559.76
2022-09-25T09:41:32.443Z,559.76
2022-09-25T09:43:31.859Z,559.76
2022-09-25T09:45:32.058Z,559.76
2022-09-25T09:47:32.410Z,559.76
2022-09-25T09:49:32.323Z,559.76
2022-09-25T09:51:39.134Z,559.76
2022-09-25T09:53:31.960Z,559.76
2022-09-25T09:55:32.017Z,559.76
2022-09-25T09:57:32.098Z,549.49
2022-09-25T09:59:31.886Z,549.49
2022-09-25T10:02:11.544Z,549.49
2022-09-25T10:03:33.971Z,0.53
2022-09-25T10:05:32.436Z,0.53
2022-09-25T10:07:32.313Z,0.53
2022-09-25T10:09:31.839Z,559.76
2022-09-25T10:11:32.604Z,559.76
2022-09-25T10:13:38.011Z,559.76
2022-09-25T10:15:32.759Z,0.54
2022-09-25T10:17:32.661Z,0.54
2022-09-25T10:19:33.552Z,0.54
2022-09-25T10:21:32.036Z,559.76
2022-09-25T10:23:38.084Z,559.76
2022-09-25T10:25:33.197Z,559.76
2022-09-25T10:27:32.384Z,539.36
2022-09-25T10:29:33.018Z,539.36
2022-09-25T10:31:32.838Z,539.36
2022-09-25T10:33:32.431Z,0.51
2022-09-25T10:35:32.425Z,0.51
2022-09-25T10:37:32.631Z,0.51
2022-09-25T10:40:14.000Z,0.5
2022-09-25T10:41:33.084Z,0.5
2022-09-25T10:43:32.754Z,0.5
2022-09-25T10:45:32.203Z,559.76
2022-09-25T10:47:32.364Z,559.76
2022-09-25T10:49:32.110Z,559.76
2022-09-25T10:51:32.047Z,0.54
2022-09-25T10:53:32.185Z,0.54
2022-09-25T10:55:41.553Z,0.54
2022-09-25T10:57:33.050Z,0.54
2022-09-25T10:59:33.219Z,0.54
2022-09-25T11:01:35.771Z,0.54
2022-09-25T11:03:40.076Z,0.52
2022-09-25T11:05:32.693Z,0.52
2022-09-25T11:07:32.555Z,0.52
2022-09-25T11:09:32.281Z,0.47
2022-09-25T11:11:32.448Z,0.47
2022-09-25T11:13:32.874Z,0.47
2022-09-25T11:15:32.679Z,0.44
2022-09-25T11:17:34.721Z,0.44
2022-09-25T11:19:38.873Z,0.44
2022-09-25T11:21:32.258Z,454.17
2022-09-25T11:23:32.814Z,454.17
2022-09-25T11:25:35.700Z,454.17
2022-09-25T11:27:32.980Z,463.12
2022-09-25T11:29:32.530Z,463.12
2022-09-25T11:31:33.452Z,463.12
2022-09-25T11:33:38.171Z,481.4
2022-09-25T11:35:32.316Z,481.4
2022-09-25T11:37:32.544Z,481.4
2022-09-25T11:39:33.244Z,0.5
2022-09-25T11:41:33.377Z,0.5
2022-09-25T11:43:32.375Z,0.5
2022-09-25T11:45:32.443Z,0.46
2022-09-25T11:47:33.562Z,0.46
2022-09-25T11:49:35.143Z,0.46
2022-09-25T11:51:32.537Z,0.46
2022-09-25T11:53:35.108Z,0.46
2022-09-25T11:56:06.685Z,0.46
2022-09-25T11:57:34.845Z,490.73
2022-09-25T11:59:32.268Z,490.73
2022-09-25T12:01:36.112Z,490.73
2022-09-25T12:03:32.947Z,0.5
2022-09-25T12:05:38.317Z,0.5
2022-09-25T12:07:32.703Z,0.5
2022-09-25T12:09:32.214Z,0.5
2022-09-25T12:11:33.534Z,0.5
2022-09-25T12:13:32.267Z,0.5
2022-09-25T12:15:32.365Z,0.51
2022-09-25T12:17:32.645Z,0.51
2022-09-25T12:19:32.171Z,0.51
2022-09-25T12:21:32.779Z,0.53
2022-09-25T12:23:32.212Z,0.53
2022-09-25T12:25:36.779Z,0.53
2022-09-25T12:27:31.515Z,529.36
2022-09-25T12:29:31.750Z,529.36
2022-09-25T12:31:38.705Z,529.36
2022-09-25T12:33:31.278Z,0.49
2022-09-25T12:35:31.788Z,0.49
2022-09-25T12:37:38.096Z,0.49
2022-09-25T12:39:31.724Z,0.52
2022-09-25T12:41:32.328Z,0.52
2022-09-25T12:43:31.168Z,0.52
2022-09-25T12:45:35.258Z,559.76
2022-09-25T12:47:31.815Z,559.76
2022-09-25T12:49:32.205Z,559.76
2022-09-25T12:51:38.822Z,0.52
2022-09-25T12:53:31.854Z,0.52
2022-09-25T12:55:31.776Z,0.52
2022-09-25T12:57:32.018Z,559.76
2022-09-25T12:59:31.348Z,559.76
2022-09-25T13:01:35.125Z,559.76
2022-09-25T13:03:32.449Z,0.5
2022-09-25T13:05:33.584Z,0.5
2022-09-25T13:07:31.500Z,0.5
2022-09-25T13:09:31.950Z,549.49
2022-09-25T13:11:32.250Z,549.49
2022-09-25T13:13:35.811Z,549.49
2022-09-25T13:15:32.026Z,0.5
2022-09-25T13:17:32.583Z,0.5
2022-09-25T13:19:33.601Z,0.5
2022-09-25T13:21:31.278Z,0.47
2022-09-25T13:23:32.237Z,0.47
2022-09-25T13:25:32.363Z,0.47
2022-09-25T13:27:36.817Z,490.73
2022-09-25T13:29:31.469Z,490.73
2022-09-25T13:31:32.936Z,490.73
2022-09-25T13:33:32.094Z,481.4
2022-09-25T13:35:32.210Z,481.4
2022-09-25T13:37:31.712Z,481.4
2022-09-25T13:39:31.904Z,0.46
2022-09-25T13:41:31.800Z,0.46
2022-09-25T13:43:34.921Z,0.46
2022-09-25T13:45:31.923Z,0.46
2022-09-25T13:47:32.200Z,0.46
2022-09-25T13:49:37.892Z,0.46
2022-09-25T13:51:32.198Z,509.78
2022-09-25T13:53:37.098Z,509.78
2022-09-25T13:55:31.612Z,509.78
2022-09-25T13:57:31.683Z,539.36
2022-09-25T13:59:31.481Z,539.36
2022-09-25T14:01:37.556Z,539.36
2022-09-25T14:03:32.247Z,0.49
2022-09-25T14:05:31.786Z,0.49
2022-09-25T14:07:35.555Z,0.49
2022-09-25T14:09:31.567Z,0.46
2022-09-25T14:11:32.196Z,0.46
2022-09-25T14:13:31.716Z,0.46
2022-09-25T14:15:31.810Z,500.19
2022-09-25T14:17:31.648Z,500.19
2022-09-25T14:19:35.261Z,500.19
2022-09-25T14:21:32.010Z,0.48
2022-09-25T14:23:32.189Z,0.48
2022-09-25T14:25:31.853Z,0.48
2022-09-25T14:27:31.982Z,0.49
2022-09-25T14:29:31.330Z,0.49
2022-09-25T14:31:31.761Z,0.49
2022-09-25T14:34:03.851Z,0.5
2022-09-25T14:35:31.622Z,0.5
2022-09-25T14:37:31.720Z,0.5
2022-09-25T14:39:32.021Z,0.51
2022-09-25T14:41:32.313Z,0.51
2022-09-25T14:45:32.209Z,0.5
2022-09-25T14:47:31.985Z,0.5
2022-09-25T14:49:31.469Z,0.5
2022-09-25T14:51:36.970Z,519.51
2022-09-25T14:53:31.619Z,519.51
2022-09-25T14:55:32.084Z,519.51
2022-09-25T14:57:36.875Z,0.5
2022-09-25T14:59:31.382Z,0.5
2022-09-25T15:01:35.251Z,0.5
2022-09-25T15:03:32.219Z,0.5
2022-09-25T15:05:31.935Z,0.5
2022-09-25T15:07:35.447Z,0.5
2022-09-25T15:09:31.833Z,0.5
2022-09-25T15:11:31.497Z,0.5
2022-09-25T15:13:32.139Z,0.5
2022-09-25T15:15:32.156Z,519.51
2022-09-25T15:17:32.890Z,519.51
2022-09-25T15:19:31.392Z,519.51
2022-09-25T15:21:31.997Z,519.51
2022-09-25T15:23:34.917Z,519.51
2022-09-25T15:25:31.968Z,519.51
2022-09-25T15:27:31.448Z,529.36
2022-09-25T15:29:31.542Z,529.36
2022-09-25T15:31:32.375Z,529.36
2022-09-25T15:33:35.059Z,509.78
2022-09-25T15:35:31.433Z,509.78
2022-09-25T15:37:31.726Z,509.78
2022-09-25T15:39:31.797Z,0.46
2022-09-25T15:41:32.226Z,0.46
2022-09-25T15:43:31.954Z,0.46
2022-09-25T15:45:37.849Z,0.46
2022-09-25T15:47:32.561Z,0.46
2022-09-25T15:49:31.953Z,0.46
2022-09-25T15:51:31.558Z,490.73
2022-09-25T15:53:31.260Z,490.73
2022-09-25T15:55:31.475Z,490.73
2022-09-25T15:57:31.946Z,0.46
2022-09-25T15:59:31.229Z,0.46
2022-09-25T16:01:31.972Z,0.46
2022-09-25T16:03:37.909Z,472.2
2022-09-25T16:05:35.600Z,472.2
2022-09-25T16:07:31.491Z,472.2
2022-09-25T16:09:32.088Z,472.2
2022-09-25T16:11:35.484Z,472.2
2022-09-25T16:13:32.115Z,472.2
2022-09-25T16:15:31.863Z,0.46
2022-09-25T16:17:33.058Z,0.46
2022-09-25T16:19:36.343Z,0.46
2022-09-25T16:21:32.581Z,472.2
2022-09-25T16:23:33.068Z,472.2
2022-09-25T16:25:32.081Z,472.2
2022-09-25T16:27:32.169Z,0.45
2022-09-25T16:29:32.636Z,0.45
2022-09-25T16:31:35.751Z,0.45
2022-09-25T16:33:32.338Z,463.12
2022-09-25T16:35:50.553Z,463.12
2022-09-25T16:37:47.499Z,463.12
2022-09-25T16:39:32.805Z,463.12
2022-09-25T16:41:33.662Z,463.12
2022-09-25T16:43:35.155Z,463.12
2022-09-25T16:45:32.510Z,0.44
2022-09-25T16:47:32.859Z,0.44
2022-09-25T16:49:32.446Z,0.44
2022-09-25T16:51:32.044Z,0.43
2022-09-25T16:53:32.468Z,0.43
2022-09-25T16:55:35.017Z,0.43
2022-09-25T16:57:33.099Z,0.42
2022-09-25T16:59:32.937Z,0.42
2022-09-25T17:01:35.713Z,0.42
2022-09-25T17:03:35.098Z,436.65
2022-09-25T17:05:32.844Z,436.65
2022-09-25T17:07:32.780Z,436.65
2022-09-25T17:09:33.078Z,436.65
2022-09-25T17:11:33.385Z,436.65
2022-09-25T17:13:38.900Z,436.65
2022-09-25T17:15:33.190Z,0.41
2022-09-25T17:17:32.657Z,0.41
2022-09-25T17:19:35.939Z,0.41
2022-09-25T17:21:33.224Z,0.4
2022-09-25T17:23:32.761Z,0.4
2022-09-25T17:25:32.646Z,0.4
2022-09-25T17:27:32.575Z,0.4
2022-09-25T17:29:33.239Z,0.4
2022-09-25T17:31:32.891Z,0.4
2022-09-25T17:33:33.805Z,0.4
2022-09-25T17:35:37.257Z,0.4
2022-09-25T17:37:32.818Z,0.4
2022-09-25T17:39:32.137Z,411.29
2022-09-25T17:41:39.807Z,411.29
2022-09-25T17:43:34.059Z,411.29
2022-09-25T17:45:32.358Z,0.39
2022-09-25T17:47:33.742Z,0.39
2022-09-25T17:49:40.085Z,0.39
2022-09-25T17:51:33.692Z,0.39
2022-09-25T17:53:33.113Z,0.39
2022-09-25T17:55:36.289Z,0.39
2022-09-25T17:57:35.521Z,0.38
2022-09-25T17:59:34.410Z,0.38
2022-09-25T18:01:39.413Z,0.38
2022-09-25T18:03:36.016Z,403.07
2022-09-25T18:05:32.504Z,403.07
2022-09-25T18:07:33.936Z,403.07
2022-09-25T18:09:33.797Z,0.38
2022-09-25T18:11:34.290Z,0.38
2022-09-25T18:13:36.705Z,0.38
2022-09-25T18:15:31.841Z,403.07
2022-09-25T18:17:32.948Z,403.07
2022-09-25T18:19:33.752Z,403.07
2022-09-25T18:21:33.822Z,403.07
2022-09-25T18:23:33.570Z,403.07
2022-09-25T18:25:32.159Z,403.07
2022-09-25T18:27:39.932Z,403.07
2022-09-25T18:29:35.574Z,403.07
2022-09-25T18:31:32.753Z,403.07
2022-09-25T18:33:32.682Z,0.39
2022-09-25T18:35:33.893Z,0.39
2022-09-25T18:37:31.953Z,0.39
2022-09-25T18:39:32.325Z,394.98
2022-09-25T18:41:33.045Z,394.98
2022-09-25T18:43:33.316Z,394.98
2022-09-25T18:45:39.490Z,0.3
2022-09-25T18:47:33.788Z,0.3
2022-09-25T18:49:32.704Z,0.3
2022-09-25T18:51:37.303Z,313.38
2022-09-25T18:53:32.106Z,313.38
2022-09-25T18:55:32.848Z,313.38
2022-09-25T18:57:35.344Z,0.3
2022-09-25T18:59:32.221Z,0.3
2022-09-25T19:01:37.168Z,0.3
2022-09-25T19:03:40.639Z,0.31
2022-09-25T19:05:33.964Z,0.31
2022-09-25T19:07:33.030Z,0.31
2022-09-25T19:09:39.385Z,0.32
2022-09-25T19:11:32.453Z,0.32
2022-09-25T19:13:35.474Z,0.32
2022-09-25T19:15:34.004Z,356.22
2022-09-25T19:17:35.440Z,356.22
2022-09-25T19:19:32.187Z,356.22
2022-09-25T19:21:33.018Z,371.38
2022-09-25T19:23:31.504Z,371.38
2022-09-25T19:25:34.423Z,371.38
2022-09-25T19:27:33.414Z,0.36
2022-09-25T19:29:33.272Z,0.36
2022-09-25T19:31:32.857Z,0.36
2022-09-25T19:33:32.549Z,0.37
2022-09-25T19:35:33.440Z,0.37
2022-09-25T19:37:33.041Z,0.37
2022-09-25T19:39:33.137Z,0.37
2022-09-25T19:41:33.098Z,0.37
2022-09-25T19:43:32.589Z,0.37
2022-09-25T19:45:37.616Z,0.38
2022-09-25T19:47:33.769Z,0.38
2022-09-25T19:49:32.989Z,0.38
2022-09-25T19:51:33.358Z,0.39
2022-09-25T19:53:36.718Z,0.39
2022-09-25T19:55:32.020Z,0.39
2022-09-25T19:57:33.044Z,0.4
2022-09-25T19:59:33.277Z,0.4
2022-09-25T20:01:36.061Z,0.4
2022-09-25T20:03:33.813Z,428.08
2022-09-25T20:05:39.644Z,428.08
2022-09-25T20:07:31.747Z,428.08
2022-09-25T20:09:39.608Z,0.4
2022-09-25T20:11:32.869Z,0.4
2022-09-25T20:13:33.833Z,0.4
2022-09-25T20:15:32.784Z,445.35
2022-09-25T20:17:34.021Z,445.35
2022-09-25T20:19:32.658Z,445.35
2022-09-25T20:21:33.288Z,0.43
2022-09-25T20:23:33.001Z,0.43
2022-09-25T20:25:32.188Z,0.43
2022-09-25T20:27:34.857Z,0.43
2022-09-25T20:29:32.919Z,0.43
2022-09-25T20:31:34.906Z,0.43
2022-09-25T20:33:34.527Z,445.35
2022-09-25T20:35:32.632Z,445.35
2022-09-25T20:37:33.165Z,445.35
2022-09-25T20:39:33.037Z,445.35
2022-09-25T20:41:33.578Z,445.35
2022-09-25T20:43:33.916Z,445.35
2022-09-25T20:45:32.268Z,0.42
2022-09-25T20:47:33.712Z,0.42
2022-09-25T20:49:31.764Z,0.42
2022-09-25T20:51:33.169Z,0.43
2022-09-25T20:55:32.745Z,0.43
2022-09-25T20:56:17.697Z,0.43
2022-09-25T20:59:38.458Z,0.44
2022-09-25T21:03:33.572Z,0.45
2022-09-25T21:07:38.503Z,0.45
2022-09-25T21:11:32.910Z,472.2
2022-09-25T21:15:33.070Z,0.46
2022-09-25T21:19:32.253Z,0.46
2022-09-25T21:23:32.613Z,0.46
2022-09-25T21:27:32.287Z,0.46
2022-09-25T21:31:32.487Z,0.46
2022-09-25T21:35:32.198Z,0.47
2022-09-25T21:39:32.760Z,0.47
2022-09-25T21:43:32.093Z,0.47
2022-09-25T21:47:32.616Z,0.48
2022-09-25T21:51:31.902Z,519.51
2022-09-25T21:55:32.232Z,519.51
2022-09-25T21:59:32.252Z,519.51
2022-09-25T22:03:32.815Z,519.51
2022-09-25T22:07:31.575Z,519.51
2022-09-25T22:11:32.331Z,0.49
2022-09-25T22:15:35.288Z,0.5
2022-09-25T22:19:31.402Z,0.5
2022-09-25T22:23:31.477Z,0.5
2022-09-25T22:27:31.674Z,0.51
2022-09-25T22:31:32.869Z,0.51
2022-09-25T22:35:31.738Z,0.51
2022-09-25T22:39:31.262Z,539.36
2022-09-25T22:43:32.003Z,539.36
2022-09-25T22:47:31.855Z,539.36
2022-09-25T22:51:31.549Z,539.36
2022-09-25T22:55:31.621Z,539.36
2022-09-25T22:59:32.468Z,539.36
2022-09-25T23:03:35.936Z,539.36
2022-09-25T23:07:31.912Z,539.36
2022-09-25T23:12:02.843Z,539.36
2022-09-25T23:15:31.787Z,539.36
2022-09-25T23:19:31.934Z,539.36
2022-09-25T23:23:31.741Z,539.36
2022-09-25T23:27:31.673Z,539.36
2022-09-25T23:31:32.007Z,539.36
2022-09-25T23:35:32.266Z,539.36
2022-09-25T23:39:32.087Z,539.36
2022-09-25T23:43:31.884Z,539.36
2022-09-25T23:47:31.690Z,539.36
2022-09-25T23:51:34.877Z,539.36
2022-09-25T23:55:31.779Z,539.36
2022-09-25T23:59:31.527Z,539.36
